createdAt,value
2023-03-29T00:03:12.644Z,8.86
2023-03-29T00:08:22.965Z,8.71
2023-03-29T00:13:30.754Z,8.67
2023-03-29T00:18:38.515Z,8.64
2023-03-29T00:23:48.734Z,8.66
2023-03-29T00:28:56.345Z,8.63
2023-03-29T00:34:03.958Z,8.61
2023-03-29T00:39:14.183Z,8.61
2023-03-29T00:44:51.945Z,8.66
2023-03-29T00:50:04.198Z,8.58
2023-03-29T00:55:18.730Z,8.57
2023-03-29T01:00:34.085Z,8.53
2023-03-29T01:05:44.497Z,8.49
2023-03-29T01:10:59.888Z,8.50
2023-03-29T01:16:10.455Z,8.45
2023-03-29T01:21:24.179Z,8.46
2023-03-29T01:26:43.025Z,8.45
2023-03-29T01:31:57.722Z,8.42
2023-03-29T01:37:11.857Z,8.40
2023-03-29T01:42:32.457Z,8.39
2023-03-29T01:47:49.218Z,8.38
2023-03-29T01:53:02.471Z,8.34
2023-03-29T01:58:12.513Z,8.32
2023-03-29T02:03:26.939Z,8.35
2023-03-29T02:08:34.947Z,8.35
2023-03-29T02:13:42.762Z,8.36
2023-03-29T02:18:54.381Z,8.41
2023-03-29T02:24:07.783Z,8.49
2023-03-29T02:29:15.926Z,8.60
2023-03-29T02:34:30.798Z,8.74
2023-03-29T02:39:39.522Z,8.81
2023-03-29T02:44:48.326Z,8.90
2023-03-29T02:49:58.635Z,8.99
2023-03-29T02:55:11.639Z,9.07
2023-03-29T03:00:23.318Z,9.13
2023-03-29T03:05:33.791Z,9.20
2023-03-29T03:10:41.619Z,9.25
2023-03-29T03:15:49.570Z,9.29
2023-03-29T03:21:04.834Z,9.37
2023-03-29T03:26:12.643Z,9.36
2023-03-29T03:31:21.655Z,9.39
2023-03-29T03:36:31.841Z,9.42
2023-03-29T03:41:39.519Z,9.41
2023-03-29T03:46:47.441Z,9.43
2023-03-29T03:51:57.625Z,9.46
2023-03-29T03:57:05.289Z,9.46
2023-03-29T04:02:13.102Z,9.46
2023-03-29T04:07:25.555Z,9.49
2023-03-29T04:12:33.464Z,9.51
2023-03-29T04:17:41.474Z,9.52
2023-03-29T04:22:51.767Z,9.55
2023-03-29T04:27:59.576Z,9.53
2023-03-29T04:33:07.301Z,9.52
2023-03-29T04:38:17.597Z,9.53
2023-03-29T04:43:25.281Z,9.53
2023-03-29T04:48:33.641Z,9.50
2023-03-29T04:53:43.950Z,9.53
2023-03-29T04:58:53.086Z,9.54
2023-03-29T05:04:01.270Z,9.56
2023-03-29T05:09:11.639Z,9.72
2023-03-29T05:14:19.327Z,9.78
2023-03-29T05:19:28.910Z,9.86
2023-03-29T05:24:39.370Z,9.94
2023-03-29T05:29:48.008Z,10.05
2023-03-29T05:34:55.723Z,10.13
2023-03-29T05:40:10.299Z,10.25
2023-03-29T05:45:18.214Z,10.31
2023-03-29T05:50:28.058Z,10.39
2023-03-29T05:55:38.250Z,10.48
2023-03-29T06:00:45.898Z,10.53
2023-03-29T06:06:01.077Z,10.64
2023-03-29T06:11:13.991Z,10.71
2023-03-29T06:16:22.016Z,10.78
2023-03-29T06:21:30.792Z,10.86
2023-03-29T06:26:41.494Z,10.96
2023-03-29T06:31:50.238Z,11.03
2023-03-29T06:36:57.860Z,11.09
2023-03-29T06:42:20.056Z,11.15
2023-03-29T06:47:31.028Z,11.15
2023-03-29T06:52:39.741Z,11.20
2023-03-29T06:57:50.277Z,11.22
2023-03-29T07:03:01.489Z,11.23
2023-03-29T07:08:15.415Z,11.26
2023-03-29T07:13:27.086Z,11.35
2023-03-29T07:18:34.683Z,11.39
2023-03-29T07:23:43.103Z,11.46
2023-03-29T07:28:54.366Z,11.47
2023-03-29T07:34:03.716Z,11.48
2023-03-29T07:39:13.034Z,11.53
